Time;durP1;ratioP1;P1;durP2;ratioP2;P2;SDS_P1;SDS_P2;PMS_P1;PMS_P2;Temp;Humidity;BMP_temperature;BMP_pressure;BME280_temperature;BME280_humidity;BME280_pressure;Samples;Min_cycle;Max_cycle;Signal;HPM_P1;HPM_P2
2022/11/14 00:00:25;;;;;;;29.40;18.63;;;;;;;;;;5023488;28;20185;-78
2022/11/14 00:03:11;;;;;;;27.10;18.23;;;;;;;;;;5026415;28;20177;-77
2022/11/14 00:05:56;;;;;;;32.97;19.03;;;;;;;;;;5028015;28;20197;-74
2022/11/14 00:08:41;;;;;;;27.80;16.77;;;;;;;;;;5029175;28;20276;-75
2022/11/14 00:11:26;;;;;;;42.90;23.53;;;;;;;;;;5028430;28;20269;-75
2022/11/14 00:14:11;;;;;;;30.73;19.07;;;;;;;;;;5028117;28;20710;-75
2022/11/14 00:16:56;;;;;;;31.83;19.73;;;;;;;;;;5026022;28;20294;-74
2022/11/14 00:19:41;;;;;;;38.63;20.20;;;;;;;;;;5027219;28;20182;-75
2022/11/14 00:22:26;;;;;;;35.43;20.03;;;;;;;;;;5028462;28;20274;-76
2022/11/14 00:25:11;;;;;;;32.77;19.23;;;;;;;;;;5027513;28;20255;-77
2022/11/14 00:28:00;;;;;;;28.70;17.97;;;;;;;;;;5026900;28;20261;-74
2022/11/14 00:30:48;;;;;;;32.03;18.80;;;;;;;;;;5021587;28;20174;-75
2022/11/14 00:33:33;;;;;;;30.13;18.73;;;;;;;;;;5026557;28;20561;-74
2022/11/14 00:36:17;;;;;;;28.83;17.87;;;;;;;;;;5026007;28;20213;-76
2022/11/14 00:39:02;;;;;;;33.53;20.17;;;;;;;;;;5024751;28;20189;-75
2022/11/14 00:41:47;;;;;;;32.53;20.80;;;;;;;;;;5027386;28;20208;-75
2022/11/14 00:44:32;;;;;;;30.33;18.43;;;;;;;;;;5028848;28;20237;-77
2022/11/14 00:47:16;;;;;;;30.40;19.10;;;;;;;;;;5025753;28;20210;-75
2022/11/14 00:50:01;;;;;;;32.13;19.67;;;;;;;;;;5027522;28;20225;-75
2022/11/14 00:52:46;;;;;;;28.00;18.20;;;;;;;;;;5018589;28;20167;-76
2022/11/14 00:55:31;;;;;;;26.07;17.93;;;;;;;;;;5027397;28;20213;-75
2022/11/14 00:58:16;;;;;;;28.57;18.40;;;;;;;;;;5033132;28;20277;-74
2022/11/14 01:01:01;;;;;;;28.50;18.93;;;;;;;;;;5010647;28;20223;-76
2022/11/14 01:03:49;;;;;;;30.40;19.67;;;;;;;;;;5020671;28;20181;-77
2022/11/14 01:06:34;;;;;;;27.47;18.60;;;;;;;;;;5027136;28;20237;-77
2022/11/14 01:09:19;;;;;;;24.70;16.70;;;;;;;;;;5007971;28;20228;-76
2022/11/14 01:12:04;;;;;;;27.73;18.50;;;;;;;;;;5012461;28;20224;-75
2022/11/14 01:14:49;;;;;;;26.87;18.37;;;;;;;;;;5022171;28;20744;-76
2022/11/14 01:17:34;;;;;;;26.70;18.63;;;;;;;;;;5027392;28;20587;-76
2022/11/14 01:20:19;;;;;;;28.70;18.03;;;;;;;;;;5026361;28;20217;-76
2022/11/14 01:23:04;;;;;;;26.83;18.07;;;;;;;;;;5022334;28;20185;-76
2022/11/14 01:25:49;;;;;;;29.00;19.03;;;;;;;;;;5020412;28;20213;-77
2022/11/14 01:28:34;;;;;;;29.33;19.07;;;;;;;;;;5009161;28;20195;-76
2022/11/14 01:31:20;;;;;;;29.47;19.30;;;;;;;;;;5023688;28;20746;-76
2022/11/14 01:34:05;;;;;;;28.53;18.57;;;;;;;;;;5012128;28;20174;-76
2022/11/14 01:36:50;;;;;;;32.77;20.90;;;;;;;;;;5027500;28;20677;-76
2022/11/14 01:39:34;;;;;;;28.43;19.37;;;;;;;;;;5027839;28;20546;-76
2022/11/14 01:42:19;;;;;;;28.30;17.90;;;;;;;;;;5027320;28;20189;-75
2022/11/14 01:45:23;;;;;;;25.90;16.77;;;;;;;;;;5025773;28;20185;-76
2022/11/14 01:48:17;;;;;;;31.83;19.83;;;;;;;;;;5010371;28;20209;-77
2022/11/14 01:51:13;;;;;;;28.47;18.20;;;;;;;;;;5026977;28;20182;-78
2022/11/14 01:54:01;;;;;;;30.27;18.57;;;;;;;;;;5026816;28;20599;-76
2022/11/14 01:56:54;;;;;;;30.37;19.13;;;;;;;;;;5024466;28;20198;-76
2022/11/14 01:59:44;;;;;;;27.87;18.83;;;;;;;;;;5031077;28;20182;-77
2022/11/14 02:02:29;;;;;;;32.10;20.07;;;;;;;;;;5017794;28;20273;-76
2022/11/14 02:05:15;;;;;;;28.23;18.60;;;;;;;;;;5018680;28;20178;-76
2022/11/14 02:08:00;;;;;;;26.93;16.60;;;;;;;;;;5029768;28;20185;-76
2022/11/14 02:10:45;;;;;;;26.80;17.07;;;;;;;;;;5011094;28;20155;-76
2022/11/14 02:13:29;;;;;;;33.97;20.27;;;;;;;;;;5028110;28;20178;-74
2022/11/14 02:16:15;;;;;;;34.70;20.47;;;;;;;;;;5028125;28;20701;-75
2022/11/14 02:18:59;;;;;;;37.17;20.80;;;;;;;;;;5016421;28;20186;-74
2022/11/14 02:21:44;;;;;;;27.33;17.70;;;;;;;;;;5030279;28;20185;-74
2022/11/14 02:24:29;;;;;;;26.47;17.77;;;;;;;;;;5030432;28;20186;-74
2022/11/14 02:27:14;;;;;;;23.43;15.80;;;;;;;;;;5029394;28;20320;-75
2022/11/14 02:30:03;;;;;;;23.93;15.97;;;;;;;;;;5028300;28;20213;-76
2022/11/14 02:32:49;;;;;;;21.70;15.60;;;;;;;;;;5029223;28;20179;-76
2022/11/14 02:35:33;;;;;;;22.77;16.13;;;;;;;;;;5026632;28;20199;-74
2022/11/14 02:38:19;;;;;;;25.57;16.87;;;;;;;;;;5037094;28;20174;-74
2022/11/14 02:41:03;;;;;;;22.13;15.70;;;;;;;;;;5028522;28;20772;-75
2022/11/14 02:43:48;;;;;;;24.23;17.33;;;;;;;;;;5025366;28;20179;-74
2022/11/14 02:46:33;;;;;;;24.37;17.30;;;;;;;;;;5029947;28;20348;-74
2022/11/14 02:49:18;;;;;;;22.43;16.53;;;;;;;;;;5030293;28;20202;-75
2022/11/14 02:52:03;;;;;;;20.43;14.83;;;;;;;;;;5020886;28;20609;-75
2022/11/14 02:54:48;;;;;;;22.87;16.60;;;;;;;;;;5025967;28;20619;-75
2022/11/14 02:57:33;;;;;;;24.23;17.47;;;;;;;;;;5028330;28;20193;-74
2022/11/14 03:00:18;;;;;;;22.33;15.87;;;;;;;;;;5021268;28;20190;-74
2022/11/14 03:03:03;;;;;;;26.60;17.50;;;;;;;;;;5023581;28;20610;-74
2022/11/14 03:05:50;;;;;;;21.53;15.33;;;;;;;;;;5009680;28;20217;-75
2022/11/14 03:08:35;;;;;;;23.03;16.20;;;;;;;;;;5014487;28;20224;-74
2022/11/14 03:11:20;;;;;;;21.77;16.00;;;;;;;;;;5030145;28;20533;-75
2022/11/14 03:14:05;;;;;;;20.53;14.60;;;;;;;;;;5026065;28;20174;-75
2022/11/14 03:16:49;;;;;;;20.57;14.60;;;;;;;;;;5027224;28;20225;-74
2022/11/14 03:19:35;;;;;;;21.27;15.33;;;;;;;;;;5014416;28;22114;-74
2022/11/14 03:22:20;;;;;;;22.33;15.87;;;;;;;;;;5026296;28;20192;-74
2022/11/14 03:25:05;;;;;;;22.27;15.10;;;;;;;;;;5022097;28;20190;-74
2022/11/14 03:27:50;;;;;;;25.90;17.80;;;;;;;;;;5019683;28;20213;-74
2022/11/14 03:30:35;;;;;;;26.77;16.77;;;;;;;;;;5027566;28;20554;-75
2022/11/14 03:33:20;;;;;;;23.70;15.63;;;;;;;;;;5028396;28;20550;-75
2022/11/14 03:36:05;;;;;;;22.57;16.30;;;;;;;;;;5018111;28;20213;-74
2022/11/14 03:38:50;;;;;;;22.90;15.27;;;;;;;;;;5024366;28;20179;-75
2022/11/14 03:41:35;;;;;;;20.87;14.33;;;;;;;;;;5026714;28;20173;-75
2022/11/14 03:44:20;;;;;;;22.23;14.97;;;;;;;;;;5018915;28;20198;-76
2022/11/14 03:47:05;;;;;;;22.23;15.50;;;;;;;;;;5026941;28;20892;-75
2022/11/14 03:49:49;;;;;;;22.67;15.73;;;;;;;;;;5026178;28;20865;-74
2022/11/14 03:52:34;;;;;;;27.43;17.77;;;;;;;;;;5025403;28;20227;-74
2022/11/14 03:55:19;;;;;;;23.53;16.50;;;;;;;;;;5024772;28;20182;-74
2022/11/14 03:58:05;;;;;;;25.27;16.70;;;;;;;;;;5020491;28;20178;-74
2022/11/14 04:00:49;;;;;;;22.20;15.40;;;;;;;;;;5025849;28;20186;-74
2022/11/14 04:03:34;;;;;;;22.53;15.87;;;;;;;;;;5028348;28;20178;-75
2022/11/14 04:06:19;;;;;;;22.83;15.40;;;;;;;;;;5020564;28;20203;-74
2022/11/14 04:09:05;;;;;;;21.13;15.23;;;;;;;;;;5025679;28;20198;-75
2022/11/14 04:11:50;;;;;;;23.03;16.10;;;;;;;;;;5021974;28;20197;-75
2022/11/14 04:14:34;;;;;;;24.07;16.50;;;;;;;;;;5025331;28;20186;-77
2022/11/14 04:17:19;;;;;;;26.40;17.03;;;;;;;;;;5024046;28;20207;-75
2022/11/14 04:20:04;;;;;;;24.90;17.03;;;;;;;;;;5019564;28;20209;-75
2022/11/14 04:22:52;;;;;;;23.40;16.10;;;;;;;;;;5021263;28;20190;-75
2022/11/14 04:25:36;;;;;;;23.40;16.23;;;;;;;;;;5027984;28;20692;-74
2022/11/14 04:28:21;;;;;;;24.60;16.43;;;;;;;;;;5027264;28;20210;-75
2022/11/14 04:31:06;;;;;;;27.27;17.20;;;;;;;;;;5024343;28;20175;-75
2022/11/14 04:33:52;;;;;;;23.37;15.60;;;;;;;;;;5024223;28;20183;-75
2022/11/14 04:36:36;;;;;;;21.17;15.13;;;;;;;;;;5027189;28;20254;-75
2022/11/14 04:39:21;;;;;;;22.10;16.27;;;;;;;;;;5019242;28;20274;-75
2022/11/14 04:42:06;;;;;;;25.43;15.00;;;;;;;;;;5021553;28;20224;-75
2022/11/14 04:44:51;;;;;;;20.97;15.27;;;;;;;;;;5023638;28;20190;-75
2022/11/14 04:47:36;;;;;;;21.17;14.63;;;;;;;;;;5012761;28;20197;-75
2022/11/14 04:50:21;;;;;;;20.57;15.33;;;;;;;;;;5024985;28;20188;-76
2022/11/14 04:53:06;;;;;;;20.97;16.13;;;;;;;;;;5020106;28;20671;-75
2022/11/14 04:55:51;;;;;;;23.27;17.03;;;;;;;;;;5025904;28;20611;-75
2022/11/14 04:58:36;;;;;;;23.77;16.40;;;;;;;;;;5020013;28;20178;-75
2022/11/14 05:01:21;;;;;;;19.87;14.83;;;;;;;;;;5023930;28;20183;-75
2022/11/14 05:04:06;;;;;;;17.13;14.63;;;;;;;;;;5024255;28;20183;-75
2022/11/14 05:06:51;;;;;;;21.80;16.20;;;;;;;;;;5012953;28;20545;-75
2022/11/14 05:09:36;;;;;;;22.50;17.23;;;;;;;;;;5022261;28;20653;-75
2022/11/14 05:12:21;;;;;;;20.57;16.10;;;;;;;;;;5018649;28;20192;-76
2022/11/14 05:15:06;;;;;;;20.77;15.73;;;;;;;;;;5022350;28;20822;-76
2022/11/14 05:17:51;;;;;;;21.57;16.23;;;;;;;;;;5018645;28;20201;-75
2022/11/14 05:20:35;;;;;;;21.00;15.90;;;;;;;;;;5026989;28;20179;-75
2022/11/14 05:23:22;;;;;;;22.27;16.03;;;;;;;;;;5023196;28;20174;-75
2022/11/14 05:26:09;;;;;;;23.00;17.27;;;;;;;;;;5019837;28;20556;-75
2022/11/14 05:28:54;;;;;;;22.50;17.20;;;;;;;;;;5023539;28;20252;-75
2022/11/14 05:31:39;;;;;;;22.53;15.93;;;;;;;;;;5025318;28;20189;-75
2022/11/14 05:34:24;;;;;;;22.80;15.63;;;;;;;;;;5017969;28;20217;-75
2022/11/14 05:37:09;;;;;;;22.70;16.70;;;;;;;;;;5015669;28;20198;-75
2022/11/14 05:39:54;;;;;;;22.73;16.40;;;;;;;;;;5025658;28;20582;-76
2022/11/14 05:42:39;;;;;;;24.43;18.30;;;;;;;;;;5027137;28;20206;-75
2022/11/14 05:45:24;;;;;;;23.73;19.63;;;;;;;;;;5022547;28;21039;-77
2022/11/14 05:48:09;;;;;;;23.87;18.20;;;;;;;;;;5025891;28;20178;-75
2022/11/14 05:50:54;;;;;;;23.97;18.57;;;;;;;;;;5024091;28;20689;-75
2022/11/14 05:53:40;;;;;;;26.67;18.57;;;;;;;;;;5023495;28;20175;-75
2022/11/14 05:56:25;;;;;;;26.53;20.30;;;;;;;;;;5018198;28;20206;-75
2022/11/14 05:59:10;;;;;;;26.70;19.33;;;;;;;;;;5024698;28;20190;-76
2022/11/14 06:01:55;;;;;;;27.27;19.67;;;;;;;;;;5023299;28;20233;-75
2022/11/14 06:04:40;;;;;;;24.70;18.50;;;;;;;;;;5022198;28;20174;-75
2022/11/14 06:07:25;;;;;;;25.00;19.20;;;;;;;;;;5031868;28;20483;-75
2022/11/14 06:10:10;;;;;;;22.83;17.20;;;;;;;;;;5026720;28;20233;-75
2022/11/14 06:12:55;;;;;;;23.20;19.70;;;;;;;;;;5020037;28;20456;-75
2022/11/14 06:15:40;;;;;;;23.10;19.07;;;;;;;;;;5020898;28;20964;-76
2022/11/14 06:18:24;;;;;;;23.10;17.37;;;;;;;;;;5024805;28;20771;-75
2022/11/14 06:21:14;;;;;;;23.43;19.23;;;;;;;;;;5017591;28;20795;-75
2022/11/14 06:23:58;;;;;;;20.53;16.10;;;;;;;;;;5020492;28;20468;-75
2022/11/14 06:26:43;;;;;;;20.90;15.97;;;;;;;;;;5020999;28;20218;-75
2022/11/14 06:29:28;;;;;;;20.17;14.90;;;;;;;;;;5026376;28;20582;-75
2022/11/14 06:32:13;;;;;;;19.30;15.33;;;;;;;;;;5023497;28;20179;-76
2022/11/14 06:34:58;;;;;;;23.67;16.93;;;;;;;;;;5021341;28;20590;-75
2022/11/14 06:37:43;;;;;;;25.40;16.60;;;;;;;;;;5023215;28;20189;-75
2022/11/14 06:40:28;;;;;;;28.33;18.03;;;;;;;;;;5025064;28;20200;-76
2022/11/14 06:43:13;;;;;;;25.67;17.57;;;;;;;;;;5021264;28;20186;-75
2022/11/14 06:45:58;;;;;;;27.43;18.23;;;;;;;;;;5026073;28;20293;-75
2022/11/14 06:48:44;;;;;;;23.37;16.43;;;;;;;;;;5024774;28;20230;-77
2022/11/14 06:51:29;;;;;;;23.17;16.83;;;;;;;;;;5022369;28;20183;-76
2022/11/14 06:54:14;;;;;;;23.80;15.97;;;;;;;;;;5020207;28;20171;-71
2022/11/14 06:56:58;;;;;;;23.23;16.70;;;;;;;;;;5025470;28;21978;-73
2022/11/14 06:59:44;;;;;;;20.37;15.30;;;;;;;;;;5023699;28;20237;-72
2022/11/14 07:02:28;;;;;;;21.80;16.17;;;;;;;;;;5025038;28;20199;-73
2022/11/14 07:05:14;;;;;;;20.67;15.07;;;;;;;;;;5026287;28;20178;-73
2022/11/14 07:07:58;;;;;;;23.60;15.60;;;;;;;;;;5023537;28;20733;-75
2022/11/14 07:10:43;;;;;;;22.97;16.63;;;;;;;;;;5026629;28;21085;-74
2022/11/14 07:13:30;;;;;;;23.13;15.87;;;;;;;;;;5085005;22;20273;-74
2022/11/14 07:16:15;;;;;;;21.53;15.93;;;;;;;;;;5075486;28;20346;-75
2022/11/14 07:19:00;;;;;;;22.63;16.00;;;;;;;;;;5082599;28;20181;-75
2022/11/14 07:21:45;;;;;;;21.53;15.70;;;;;;;;;;5079854;28;22221;-75
2022/11/14 07:24:30;;;;;;;20.57;14.83;;;;;;;;;;5064131;28;20177;-75
2022/11/14 07:27:15;;;;;;;21.37;15.60;;;;;;;;;;5063366;28;20603;-75
2022/11/14 07:30:00;;;;;;;20.80;15.43;;;;;;;;;;5066288;28;20220;-75
2022/11/14 07:32:45;;;;;;;20.60;15.70;;;;;;;;;;5064791;28;20193;-75
2022/11/14 07:35:29;;;;;;;22.17;15.30;;;;;;;;;;5058897;28;20196;-75
2022/11/14 07:38:14;;;;;;;19.33;15.43;;;;;;;;;;5081107;28;20363;-75
2022/11/14 07:41:01;;;;;;;18.40;13.73;;;;;;;;;;5064558;28;20726;-75
2022/11/14 07:43:45;;;;;;;19.73;14.70;;;;;;;;;;5071130;28;20212;-75
2022/11/14 07:46:30;;;;;;;18.43;14.73;;;;;;;;;;5077657;28;20265;-75
2022/11/14 07:49:16;;;;;;;22.10;15.17;;;;;;;;;;5071038;28;20212;-75
2022/11/14 07:52:00;;;;;;;19.00;14.43;;;;;;;;;;5068851;28;20280;-75
2022/11/14 07:54:45;;;;;;;19.50;14.40;;;;;;;;;;5084919;28;20338;-75
2022/11/14 07:57:30;;;;;;;16.87;13.13;;;;;;;;;;5066040;28;20829;-75
2022/11/14 08:00:15;;;;;;;18.30;14.20;;;;;;;;;;5066853;28;20648;-75
2022/11/14 08:03:01;;;;;;;18.07;12.97;;;;;;;;;;5065571;28;20223;-75
2022/11/14 08:05:46;;;;;;;18.33;13.90;;;;;;;;;;5064480;28;20184;-75
2022/11/14 08:08:31;;;;;;;18.50;13.00;;;;;;;;;;5067692;28;20292;-75
2022/11/14 08:11:46;;;;;;;18.40;13.70;;;;;;;;;;5069261;28;20309;-75
2022/11/14 08:14:23;;;;;;;16.57;12.47;;;;;;;;;;5066345;28;20232;-75
2022/11/14 08:17:08;;;;;;;16.67;12.40;;;;;;;;;;5069009;28;20674;-75
2022/11/14 08:19:53;;;;;;;18.23;13.87;;;;;;;;;;5068235;28;20213;-75
2022/11/14 08:22:38;;;;;;;21.87;14.87;;;;;;;;;;5081751;28;20212;-75
2022/11/14 08:25:23;;;;;;;23.67;14.77;;;;;;;;;;5064361;28;20219;-75
2022/11/14 08:28:08;;;;;;;16.87;12.87;;;;;;;;;;5064036;28;20256;-81
2022/11/14 08:30:58;;;;;;;31.30;18.87;;;;;;;;;;5066077;28;20250;-79
2022/11/14 08:33:43;;;;;;;20.30;14.40;;;;;;;;;;5067974;28;20178;-78
2022/11/14 08:36:30;;;;;;;17.47;12.90;;;;;;;;;;5070680;28;20192;-80
2022/11/14 08:39:15;;;;;;;22.27;14.47;;;;;;;;;;5082208;28;20603;-81
2022/11/14 08:41:59;;;;;;;20.20;13.97;;;;;;;;;;5069679;28;20679;-79
2022/11/14 08:44:44;;;;;;;16.50;13.03;;;;;;;;;;5068009;28;20192;-79
2022/11/14 08:47:29;;;;;;;25.77;18.03;;;;;;;;;;5065061;28;20188;-80
2022/11/14 08:50:14;;;;;;;19.60;14.67;;;;;;;;;;5082999;28;20211;-80
2022/11/14 08:53:00;;;;;;;17.40;13.30;;;;;;;;;;5062438;28;20330;-78
2022/11/14 08:55:46;;;;;;;19.50;15.13;;;;;;;;;;5062319;28;20259;-79
2022/11/14 08:58:31;;;;;;;18.17;14.50;;;;;;;;;;5071958;28;20192;-78
2022/11/14 09:01:15;;;;;;;17.23;12.53;;;;;;;;;;5064475;28;20196;-78
2022/11/14 09:04:00;;;;;;;15.70;11.40;;;;;;;;;;5064597;28;20177;-79
2022/11/14 09:06:45;;;;;;;16.13;11.87;;;;;;;;;;5065779;28;20215;-79
2022/11/14 09:09:30;;;;;;;13.93;11.30;;;;;;;;;;5066632;28;20216;-79
2022/11/14 09:12:16;;;;;;;15.27;10.90;;;;;;;;;;5067309;28;20233;-79
2022/11/14 09:15:01;;;;;;;16.20;11.70;;;;;;;;;;5065143;28;20204;-79
2022/11/14 09:17:45;;;;;;;17.90;12.77;;;;;;;;;;5067435;28;20252;-79
2022/11/14 09:20:30;;;;;;;18.23;12.33;;;;;;;;;;5067628;28;20268;-79
2022/11/14 09:23:15;;;;;;;14.23;10.93;;;;;;;;;;5067301;28;20213;-79
2022/11/14 09:26:08;;;;;;;13.30;10.30;;;;;;;;;;5066899;28;20189;-79
2022/11/14 09:28:52;;;;;;;12.23;9.70;;;;;;;;;;5066484;28;20249;-79
2022/11/14 09:31:37;;;;;;;12.43;9.20;;;;;;;;;;5066091;28;20262;-79
2022/11/14 09:34:22;;;;;;;11.33;8.80;;;;;;;;;;5048762;28;20602;-79
2022/11/14 09:37:07;;;;;;;12.07;8.77;;;;;;;;;;5050451;28;20208;-79
2022/11/14 09:39:52;;;;;;;13.63;9.83;;;;;;;;;;5058340;28;20231;-79
2022/11/14 09:42:37;;;;;;;16.53;12.30;;;;;;;;;;5066716;28;20216;-79
2022/11/14 09:45:22;;;;;;;16.53;12.73;;;;;;;;;;5068299;28;20429;-79
2022/11/14 09:48:11;;;;;;;16.17;12.37;;;;;;;;;;5067138;28;20196;-79
2022/11/14 09:51:28;;;;;;;15.83;13.30;;;;;;;;;;5066285;28;20207;-79
2022/11/14 09:54:32;;;;;;;16.10;13.23;;;;;;;;;;5041080;28;20209;-79
2022/11/14 09:57:18;;;;;;;14.77;12.47;;;;;;;;;;5065782;28;20192;-78
2022/11/14 10:00:11;;;;;;;16.20;12.47;;;;;;;;;;5067411;28;20603;-79
2022/11/14 10:03:19;;;;;;;15.80;12.77;;;;;;;;;;5064903;28;20205;-79
2022/11/14 10:06:09;;;;;;;15.97;12.83;;;;;;;;;;5066260;28;20259;-79
2022/11/14 10:09:18;;;;;;;17.30;13.77;;;;;;;;;;5066971;28;20204;-79
2022/11/14 10:12:12;;;;;;;15.90;12.93;;;;;;;;;;5067099;28;20209;-79
2022/11/14 10:15:08;;;;;;;15.63;12.63;;;;;;;;;;5065957;28;20187;-80
2022/11/14 10:17:59;;;;;;;16.33;13.60;;;;;;;;;;5067877;28;20196;-79
2022/11/14 10:20:49;;;;;;;16.37;13.20;;;;;;;;;;5062554;28;20174;-79
2022/11/14 10:23:34;;;;;;;15.63;12.37;;;;;;;;;;5070265;28;20205;-79
2022/11/14 10:26:23;;;;;;;22.30;16.10;;;;;;;;;;5070877;28;20169;-79
2022/11/14 10:29:27;;;;;;;16.23;12.10;;;;;;;;;;5069738;28;20468;-79
2022/11/14 10:32:12;;;;;;;19.67;14.80;;;;;;;;;;5070298;28;20197;-79
2022/11/14 10:35:18;;;;;;;20.77;14.77;;;;;;;;;;5069073;28;20203;-79
2022/11/14 10:38:03;;;;;;;20.97;15.70;;;;;;;;;;5063995;28;20656;-79
2022/11/14 10:40:52;;;;;;;18.07;13.97;;;;;;;;;;5065277;28;20197;-79
2022/11/14 10:43:40;;;;;;;17.33;13.60;;;;;;;;;;5069302;28;20340;-79
2022/11/14 10:46:37;;;;;;;14.87;12.10;;;;;;;;;;5067656;28;20287;-79
2022/11/14 10:49:23;;;;;;;17.13;13.27;;;;;;;;;;5061893;28;20198;-79
2022/11/14 10:52:13;;;;;;;13.90;12.23;;;;;;;;;;5060376;28;20250;-79
2022/11/14 10:55:00;;;;;;;14.23;11.90;;;;;;;;;;5064388;28;20177;-79
2022/11/14 10:57:45;;;;;;;14.93;12.23;;;;;;;;;;5081800;28;20264;-79
2022/11/14 11:00:30;;;;;;;14.23;11.50;;;;;;;;;;5067848;28;20308;-77
2022/11/14 11:03:15;;;;;;;19.20;12.97;;;;;;;;;;5068243;28;20289;-78
2022/11/14 11:06:01;;;;;;;15.27;12.33;;;;;;;;;;5069144;28;20644;-78
2022/11/14 11:11:52;;;;;;;16.63;12.20;;;;;;;;;;5049160;28;20294;-78
2022/11/14 11:14:37;;;;;;;13.87;10.97;;;;;;;;;;5058309;28;20282;-78
2022/11/14 11:17:23;;;;;;;12.97;10.53;;;;;;;;;;5060339;28;20485;-78
2022/11/14 11:20:28;;;;;;;13.77;10.77;;;;;;;;;;5069609;28;20616;-78
2022/11/14 11:23:22;;;;;;;15.33;12.37;;;;;;;;;;5068021;28;20233;-78
2022/11/14 11:26:21;;;;;;;13.17;11.67;;;;;;;;;;5079955;28;20224;-78
2022/11/14 11:29:11;;;;;;;15.73;11.60;;;;;;;;;;5068907;28;20189;-78
2022/11/14 11:31:57;;;;;;;13.73;10.93;;;;;;;;;;5061044;28;20212;-80
2022/11/14 11:34:42;;;;;;;12.40;10.50;;;;;;;;;;5069514;28;20212;-78
2022/11/14 11:37:30;;;;;;;12.07;9.60;;;;;;;;;;5065315;28;20196;-85
2022/11/14 11:40:17;;;;;;;13.03;9.63;;;;;;;;;;5081424;28;20185;-80
2022/11/14 11:43:04;;;;;;;12.13;9.77;;;;;;;;;;5067609;28;20715;-78
2022/11/14 11:45:49;;;;;;;9.17;8.17;;;;;;;;;;5068834;28;20185;-80
2022/11/14 11:48:37;;;;;;;13.20;8.97;;;;;;;;;;5068432;28;20244;-78
2022/11/14 11:51:23;;;;;;;10.37;8.97;;;;;;;;;;5067740;28;20185;-78
2022/11/14 11:54:19;;;;;;;10.13;8.17;;;;;;;;;;5066148;28;20272;-80
2022/11/14 11:57:09;;;;;;;8.80;7.57;;;;;;;;;;5073445;28;20188;-79
2022/11/14 11:59:57;;;;;;;9.57;7.20;;;;;;;;;;5066411;28;20177;-77
2022/11/14 12:02:44;;;;;;;10.67;6.53;;;;;;;;;;5069393;28;20201;-77
2022/11/14 12:05:37;;;;;;;5.17;4.40;;;;;;;;;;5069624;28;20678;-77
2022/11/14 12:08:30;;;;;;;5.63;3.60;;;;;;;;;;5082414;28;20177;-78
2022/11/14 12:11:18;;;;;;;4.40;3.17;;;;;;;;;;5062970;28;20185;-77
2022/11/14 12:14:15;;;;;;;3.83;2.83;;;;;;;;;;5061903;28;20196;-79
2022/11/14 12:17:14;;;;;;;3.90;2.87;;;;;;;;;;5068881;28;20218;-77
2022/11/14 12:20:02;;;;;;;4.87;3.20;;;;;;;;;;5071760;28;20198;-77
2022/11/14 12:22:46;;;;;;;4.17;3.30;;;;;;;;;;5080759;28;20311;-76
2022/11/14 12:25:41;;;;;;;4.40;3.43;;;;;;;;;;5060901;28;20200;-76
2022/11/14 12:28:35;;;;;;;3.27;2.97;;;;;;;;;;5062632;28;20231;-76
2022/11/14 12:31:20;;;;;;;4.80;2.87;;;;;;;;;;5053021;28;20185;-76
2022/11/14 12:34:14;;;;;;;2.83;2.33;;;;;;;;;;5064776;28;20173;-77
2022/11/14 12:36:59;;;;;;;3.43;2.80;;;;;;;;;;5071035;28;20180;-81
2022/11/14 12:39:54;;;;;;;3.47;3.03;;;;;;;;;;5082776;28;20189;-80
2022/11/14 12:42:45;;;;;;;4.27;2.80;;;;;;;;;;5061121;28;20487;-80
2022/11/14 12:45:36;;;;;;;3.73;2.93;;;;;;;;;;5061295;28;20186;-80
2022/11/14 12:48:27;;;;;;;4.03;3.00;;;;;;;;;;5068466;28;20748;-81
2022/11/14 12:51:25;;;;;;;5.30;2.97;;;;;;;;;;5064522;28;20302;-82
2022/11/14 12:54:36;;;;;;;3.97;2.83;;;;;;;;;;5064188;28;20192;-81
2022/11/14 13:00:30;;;;;;;3.43;2.97;;;;;;;;;;5062917;28;20201;-81
2022/11/14 13:03:15;;;;;;;4.13;3.10;;;;;;;;;;5068840;28;20279;-80
2022/11/14 13:06:18;;;;;;;3.63;2.83;;;;;;;;;;5058171;28;20227;-80
2022/11/14 13:09:03;;;;;;;4.13;3.00;;;;;;;;;;5050326;28;20570;-80
2022/11/14 13:24:47;;;;;;;5.33;4.40;;;;;;;;;;5050305;28;20212;-81
2022/11/14 13:27:33;;;;;;;4.53;3.17;;;;;;;;;;5065832;28;20547;-81
2022/11/14 13:30:18;;;;;;;6.17;5.40;;;;;;;;;;5066339;28;20307;-81
2022/11/14 13:33:02;;;;;;;4.90;3.60;;;;;;;;;;5065992;28;20207;-81
2022/11/14 13:35:51;;;;;;;4.47;3.60;;;;;;;;;;5059925;28;20271;-81
2022/11/14 13:38:47;;;;;;;4.43;4.00;;;;;;;;;;5051216;28;20222;-81
2022/11/14 13:41:52;;;;;;;5.00;3.60;;;;;;;;;;5052322;28;20726;-81
2022/11/14 13:44:46;;;;;;;5.70;4.07;;;;;;;;;;5062247;28;20334;-81
2022/11/14 13:47:31;;;;;;;3.23;2.93;;;;;;;;;;5067543;28;20237;-81
2022/11/14 13:50:16;;;;;;;6.80;3.70;;;;;;;;;;5069303;28;20223;-81
2022/11/14 13:53:01;;;;;;;9.10;4.90;;;;;;;;;;5074059;28;20208;-81
2022/11/14 13:55:52;;;;;;;6.50;5.27;;;;;;;;;;5069282;28;20227;-81
2022/11/14 13:58:56;;;;;;;8.93;5.87;;;;;;;;;;5071875;28;20203;-81
2022/11/14 14:02:02;;;;;;;8.27;6.23;;;;;;;;;;5086069;28;20223;-81
2022/11/14 14:04:59;;;;;;;9.30;5.97;;;;;;;;;;5072721;28;20230;-80
2022/11/14 14:07:58;;;;;;;8.60;6.23;;;;;;;;;;5073026;28;20652;-80
2022/11/14 14:11:02;;;;;;;33.37;27.23;;;;;;;;;;5073673;28;20220;-80
2022/11/14 14:13:59;;;;;;;13.87;11.60;;;;;;;;;;5087453;28;20678;-80
2022/11/14 14:16:48;;;;;;;11.67;9.13;;;;;;;;;;5070109;28;20173;-80
2022/11/14 14:19:49;;;;;;;10.53;8.17;;;;;;;;;;5071514;28;20278;-80
2022/11/14 14:22:37;;;;;;;8.43;7.30;;;;;;;;;;5075575;28;20209;-80
2022/11/14 14:25:42;;;;;;;11.27;8.43;;;;;;;;;;5076905;28;20204;-80
2022/11/14 14:28:52;;;;;;;9.47;7.67;;;;;;;;;;5036819;28;20220;-80
2022/11/14 14:31:37;;;;;;;11.63;9.20;;;;;;;;;;5056369;28;20181;-81
2022/11/14 14:34:30;;;;;;;11.67;10.13;;;;;;;;;;5065398;28;20177;-80
2022/11/14 14:37:19;;;;;;;15.10;12.23;;;;;;;;;;5069994;28;20219;-80
2022/11/14 14:40:07;;;;;;;11.57;8.73;;;;;;;;;;5060510;28;20189;-80
2022/11/14 14:42:51;;;;;;;30.37;22.13;;;;;;;;;;5088640;28;20231;-80
2022/11/14 14:45:48;;;;;;;22.00;14.60;;;;;;;;;;5075442;28;20193;-80
2022/11/14 14:48:34;;;;;;;15.13;10.53;;;;;;;;;;5074073;28;20303;-81
2022/11/14 14:51:28;;;;;;;15.43;11.87;;;;;;;;;;5073082;28;20299;-81
2022/11/14 14:54:20;;;;;;;14.17;10.30;;;;;;;;;;5057791;28;20268;-81
2022/11/14 14:57:16;;;;;;;11.20;8.90;;;;;;;;;;5058990;28;20254;-81
2022/11/14 15:00:02;;;;;;;14.93;12.87;;;;;;;;;;5070315;28;20208;-81
2022/11/14 15:02:55;;;;;;;12.10;9.70;;;;;;;;;;5069946;28;20201;-81
2022/11/14 15:05:40;;;;;;;14.17;10.20;;;;;;;;;;5068818;28;20200;-80
2022/11/14 15:08:25;;;;;;;12.33;9.37;;;;;;;;;;5074378;28;20181;-80
2022/11/14 15:11:10;;;;;;;15.57;11.33;;;;;;;;;;5070023;28;20584;-81
2022/11/14 15:13:58;;;;;;;12.10;9.27;;;;;;;;;;5069591;28;20180;-80
2022/11/14 15:16:52;;;;;;;21.20;13.90;;;;;;;;;;5083379;28;20213;-81
2022/11/14 15:19:44;;;;;;;27.43;14.37;;;;;;;;;;5067384;28;20189;-81
2022/11/14 15:22:29;;;;;;;13.47;9.30;;;;;;;;;;5069706;28;20208;-81
2022/11/14 15:25:13;;;;;;;15.97;10.30;;;;;;;;;;5084202;28;20238;-81
2022/11/14 15:27:59;;;;;;;11.97;8.10;;;;;;;;;;5071439;28;20273;-81
2022/11/14 15:31:05;;;;;;;12.70;8.27;;;;;;;;;;5085879;28;20736;-81
2022/11/14 15:34:00;;;;;;;11.90;8.93;;;;;;;;;;5069963;28;20177;-81
2022/11/14 15:37:04;;;;;;;12.97;7.97;;;;;;;;;;5066257;28;20185;-80
2022/11/14 15:39:50;;;;;;;22.20;17.57;;;;;;;;;;5076007;28;20238;-80
2022/11/14 15:42:35;;;;;;;20.63;17.60;;;;;;;;;;5080720;28;20197;-80
2022/11/14 15:45:24;;;;;;;14.10;10.27;;;;;;;;;;5067874;28;20196;-80
2022/11/14 15:48:14;;;;;;;14.93;12.50;;;;;;;;;;5050286;28;20252;-81
2022/11/14 15:50:59;;;;;;;13.37;11.97;;;;;;;;;;5063470;28;20181;-81
2022/11/14 15:53:46;;;;;;;13.23;11.57;;;;;;;;;;5063071;28;20201;-80
2022/11/14 15:56:30;;;;;;;15.67;14.07;;;;;;;;;;5068716;28;20182;-81
2022/11/14 15:59:15;;;;;;;17.63;14.50;;;;;;;;;;5069186;28;20257;-81
2022/11/14 16:02:18;;;;;;;14.50;11.60;;;;;;;;;;5071156;28;20727;-80
2022/11/14 16:05:04;;;;;;;13.40;11.23;;;;;;;;;;5070683;28;20184;-81
2022/11/14 16:07:49;;;;;;;18.00;15.30;;;;;;;;;;5069560;28;20763;-81
2022/11/14 16:10:34;;;;;;;32.57;24.30;;;;;;;;;;5071823;28;20702;-80
2022/11/14 16:13:19;;;;;;;18.75;16.58;;;;;;;;;;5065928;28;21505;-81
2022/11/14 16:16:04;;;;;;;22.87;20.43;;;;;;;;;;5067116;28;20211;-81
2022/11/14 16:18:50;;;;;;;16.43;13.93;;;;;;;;;;5072265;28;20207;-82
2022/11/14 16:21:36;;;;;;;22.87;19.93;;;;;;;;;;5070584;28;20189;-81
2022/11/14 16:24:22;;;;;;;16.63;14.00;;;;;;;;;;5060448;28;20200;-82
2022/11/14 16:27:07;;;;;;;14.67;12.93;;;;;;;;;;5062854;28;20170;-82
2022/11/14 16:29:52;;;;;;;14.17;11.03;;;;;;;;;;5065948;28;20201;-82
2022/11/14 16:32:38;;;;;;;15.80;11.93;;;;;;;;;;5066099;28;20670;-82
2022/11/14 16:35:24;;;;;;;12.80;11.30;;;;;;;;;;5051064;28;20412;-81
2022/11/14 16:38:11;;;;;;;11.73;9.40;;;;;;;;;;5062173;28;20192;-82